createdAt,value
2019-03-04T00:00:00.386Z,0.00
2019-03-04T00:01:00.341Z,0.00
2019-03-04T00:02:00.329Z,0.00
2019-03-04T00:03:00.322Z,0.00
2019-03-04T00:04:00.313Z,0.00
2019-03-04T00:05:00.321Z,0.00
2019-03-04T00:06:00.294Z,0.00
2019-03-04T00:07:00.285Z,0.00
2019-03-04T00:08:00.272Z,0.00
2019-03-04T00:09:00.263Z,0.00
2019-03-04T00:10:00.328Z,0.00
2019-03-04T00:11:00.295Z,0.00
2019-03-04T00:12:00.233Z,0.00
2019-03-04T00:13:00.223Z,0.00
2019-03-04T00:14:00.212Z,0.00
2019-03-04T00:15:00.239Z,0.00
2019-03-04T00:16:01.097Z,0.00
2019-03-04T00:17:00.234Z,0.00
2019-03-04T00:18:00.223Z,0.00
2019-03-04T00:19:00.214Z,0.00
2019-03-04T00:20:00.392Z,0.00
2019-03-04T00:21:00.146Z,0.00
2019-03-04T00:22:00.185Z,0.00
2019-03-04T00:23:00.137Z,0.00
2019-03-04T00:24:00.169Z,0.00
2019-03-04T00:25:00.107Z,0.00
2019-03-04T00:26:00.097Z,0.00
2019-03-04T00:27:00.091Z,0.00
2019-03-04T00:28:00.082Z,0.00
2019-03-04T00:29:00.068Z,0.00
2019-03-04T00:30:00.058Z,0.00
2019-03-04T00:31:00.048Z,0.00
2019-03-04T00:32:00.038Z,0.00
2019-03-04T00:33:00.028Z,0.00
2019-03-04T00:34:00.019Z,0.00
2019-03-04T00:35:00.009Z,0.00
2019-03-04T00:35:59.998Z,0.00
2019-03-04T00:36:59.988Z,0.00
2019-03-04T00:37:59.977Z,0.00
2019-03-04T00:38:59.968Z,0.00
2019-03-04T00:39:59.972Z,0.00
2019-03-04T00:40:59.952Z,0.00
2019-03-04T00:41:59.939Z,0.00
2019-03-04T00:42:59.929Z,0.00
2019-03-04T00:43:59.919Z,0.00
2019-03-04T00:44:59.910Z,0.00
2019-03-04T00:45:59.959Z,0.00
2019-03-04T00:46:59.890Z,0.00
2019-03-04T00:47:59.880Z,0.00
2019-03-04T00:48:59.872Z,0.00
2019-03-04T00:49:59.860Z,0.00
2019-03-04T00:50:59.850Z,0.00
2019-03-04T00:51:59.841Z,0.00
2019-03-04T00:52:59.831Z,0.00
2019-03-04T00:53:59.824Z,0.00
2019-03-04T00:54:59.811Z,0.00
2019-03-04T00:55:59.801Z,0.00
2019-03-04T00:56:59.794Z,0.00
2019-03-04T00:57:59.780Z,0.00
2019-03-04T00:58:59.771Z,0.00
2019-03-04T00:59:59.761Z,0.00
2019-03-04T01:00:59.751Z,0.00
2019-03-04T01:01:59.741Z,0.00
2019-03-04T01:02:59.733Z,0.00
2019-03-04T01:03:59.720Z,0.00
2019-03-04T01:04:59.713Z,0.00
2019-03-04T01:05:59.700Z,0.00
2019-03-04T01:06:59.690Z,0.00
2019-03-04T01:07:59.681Z,0.00
2019-03-04T01:08:59.671Z,0.00
2019-03-04T01:09:59.667Z,0.00
2019-03-04T01:10:59.650Z,0.00
2019-03-04T01:11:59.640Z,0.00
2019-03-04T01:12:59.630Z,0.00
2019-03-04T01:13:59.619Z,0.00
2019-03-04T01:14:59.610Z,0.00
2019-03-04T01:15:59.600Z,0.00
2019-03-04T01:16:59.590Z,0.00
2019-03-04T01:17:59.584Z,0.00
2019-03-04T01:18:59.569Z,0.00
2019-03-04T01:19:59.560Z,0.00
2019-03-04T01:20:59.553Z,0.00
2019-03-04T01:21:59.539Z,0.00
2019-03-04T01:22:59.528Z,0.00
2019-03-04T01:23:59.519Z,0.00
2019-03-04T01:24:59.508Z,0.00
2019-03-04T01:25:59.498Z,0.00
2019-03-04T01:26:59.487Z,0.00
2019-03-04T01:27:59.478Z,0.00
2019-03-04T01:28:59.468Z,0.00
2019-03-04T01:29:59.457Z,0.00
2019-03-04T01:30:59.447Z,0.00
2019-03-04T01:31:59.437Z,0.00
2019-03-04T01:32:59.427Z,0.00
2019-03-04T01:33:59.418Z,0.00
2019-03-04T01:34:59.406Z,0.00
2019-03-04T01:35:59.396Z,0.00
2019-03-04T01:36:59.386Z,0.00
2019-03-04T01:37:59.375Z,0.00
2019-03-04T01:38:59.366Z,0.00
2019-03-04T01:39:59.356Z,0.00
2019-03-04T01:40:59.346Z,0.00
2019-03-04T01:41:59.335Z,0.00
2019-03-04T01:42:59.325Z,0.00
2019-03-04T01:43:59.315Z,0.00
2019-03-04T01:44:59.305Z,0.00
2019-03-04T01:45:59.295Z,0.00
2019-03-04T01:46:59.284Z,0.00
2019-03-04T01:47:59.275Z,0.00
2019-03-04T01:48:59.265Z,0.00
2019-03-04T01:49:59.255Z,0.00
2019-03-04T01:50:59.245Z,0.00
2019-03-04T01:51:59.234Z,0.00
2019-03-04T01:52:59.224Z,0.00
2019-03-04T01:53:59.214Z,0.00
2019-03-04T01:54:59.203Z,0.00
2019-03-04T01:55:59.194Z,0.00
2019-03-04T01:56:59.184Z,0.00
2019-03-04T01:57:59.173Z,0.00
2019-03-04T01:58:59.166Z,0.00
2019-03-04T01:59:59.157Z,0.00
2019-03-04T02:00:59.143Z,0.00
2019-03-04T02:01:59.133Z,0.00
2019-03-04T02:02:59.122Z,0.00
2019-03-04T02:03:59.113Z,0.00
2019-03-04T02:04:59.102Z,0.00
2019-03-04T02:05:59.093Z,0.00
2019-03-04T02:06:59.085Z,0.00
2019-03-04T02:07:59.072Z,0.00
2019-03-04T02:08:59.062Z,0.00
2019-03-04T02:09:59.051Z,0.00
2019-03-04T02:10:59.041Z,0.00
2019-03-04T02:11:59.031Z,0.00
2019-03-04T02:12:59.022Z,0.00
2019-03-04T02:13:59.011Z,0.00
2019-03-04T02:14:59.001Z,0.00
2019-03-04T02:15:58.992Z,0.00
2019-03-04T02:16:58.982Z,0.00
2019-03-04T02:17:58.972Z,0.00
2019-03-04T02:18:58.962Z,0.00
2019-03-04T02:19:58.952Z,0.00
2019-03-04T02:20:58.942Z,0.00
2019-03-04T02:21:58.931Z,0.00
2019-03-04T02:22:58.922Z,0.00
2019-03-04T02:23:58.913Z,0.00
2019-03-04T02:24:58.903Z,0.00
2019-03-04T02:25:58.892Z,0.00
2019-03-04T02:26:58.882Z,0.00
2019-03-04T02:27:58.874Z,0.00
2019-03-04T02:28:58.864Z,0.00
2019-03-04T02:29:58.853Z,0.00
2019-03-04T02:30:58.843Z,0.00
2019-03-04T02:31:58.864Z,0.00
2019-03-04T02:32:58.825Z,0.00
2019-03-04T02:33:58.814Z,0.00
2019-03-04T02:34:58.806Z,0.00
2019-03-04T02:35:58.796Z,0.00
2019-03-04T02:36:58.785Z,0.00
2019-03-04T02:37:58.776Z,0.00
2019-03-04T02:38:58.767Z,0.00
2019-03-04T02:39:58.757Z,0.00
2019-03-04T02:40:58.750Z,0.00
2019-03-04T02:41:58.737Z,0.00
2019-03-04T02:42:58.728Z,0.00
2019-03-04T02:43:58.718Z,0.00
2019-03-04T02:44:58.726Z,0.00
2019-03-04T02:45:58.697Z,0.00
2019-03-04T02:46:58.687Z,0.00
2019-03-04T02:47:58.678Z,0.00
2019-03-04T02:48:58.672Z,0.00
2019-03-04T02:49:58.659Z,0.00
2019-03-04T02:50:58.649Z,0.00
2019-03-04T02:51:58.640Z,0.00
2019-03-04T02:52:58.630Z,0.00
2019-03-04T02:53:58.619Z,0.00
2019-03-04T02:54:58.610Z,0.00
2019-03-04T02:55:58.601Z,0.00
2019-03-04T02:56:58.590Z,0.00
2019-03-04T02:57:58.581Z,0.00
2019-03-04T02:58:58.672Z,0.00
2019-03-04T02:59:58.563Z,0.00
2019-03-04T03:00:58.552Z,0.00
2019-03-04T03:01:58.557Z,0.00
2019-03-04T03:02:58.540Z,0.00
2019-03-04T03:03:58.524Z,0.00
2019-03-04T03:04:58.513Z,0.00
2019-03-04T03:05:58.502Z,0.00
2019-03-04T03:06:58.496Z,0.00
2019-03-04T03:07:58.484Z,0.00
2019-03-04T03:08:58.479Z,0.00
2019-03-04T03:09:58.464Z,0.00
2019-03-04T03:10:58.453Z,0.00
2019-03-04T03:11:58.446Z,0.00
2019-03-04T03:12:58.436Z,0.00
2019-03-04T03:13:58.426Z,0.00
2019-03-04T03:14:58.421Z,0.00
2019-03-04T03:15:58.408Z,0.00
2019-03-04T03:16:58.397Z,0.00
2019-03-04T03:17:58.387Z,0.00
2019-03-04T03:18:58.376Z,0.00
2019-03-04T03:19:58.373Z,0.00
2019-03-04T03:20:58.360Z,0.00
2019-03-04T03:21:58.346Z,0.00
2019-03-04T03:22:58.337Z,0.00
2019-03-04T03:23:59.429Z,0.00
2019-03-04T03:24:58.418Z,0.00
2019-03-04T03:25:58.306Z,0.00
2019-03-04T03:26:58.297Z,0.00
2019-03-04T03:27:58.290Z,0.00
2019-03-04T03:28:58.277Z,0.00
2019-03-04T03:29:58.267Z,0.00
2019-03-04T03:30:58.265Z,0.00
2019-03-04T03:31:58.253Z,0.00
2019-03-04T03:32:58.240Z,0.00
2019-03-04T03:33:58.230Z,0.00
2019-03-04T03:34:58.218Z,0.00
2019-03-04T03:35:58.207Z,0.00
2019-03-04T03:36:58.202Z,0.00
2019-03-04T03:37:58.190Z,0.00
2019-03-04T03:38:58.184Z,0.00
2019-03-04T03:39:58.183Z,0.00
2019-03-04T03:40:58.158Z,0.00
2019-03-04T03:41:58.147Z,0.00
2019-03-04T03:42:58.137Z,0.00
2019-03-04T03:43:58.129Z,0.00
2019-03-04T03:44:58.128Z,0.00
2019-03-04T03:45:58.109Z,0.00
2019-03-04T03:46:58.103Z,0.00
2019-03-04T03:47:58.090Z,0.00
2019-03-04T03:48:58.082Z,0.00
2019-03-04T03:49:58.069Z,0.00
2019-03-04T03:50:58.061Z,0.00
2019-03-04T03:51:58.051Z,0.00
2019-03-04T03:52:58.043Z,0.00
2019-03-04T03:53:58.030Z,0.00
2019-03-04T03:54:58.022Z,0.00
2019-03-04T03:55:58.011Z,0.00
2019-03-04T03:56:58.001Z,0.00
2019-03-04T03:57:57.990Z,0.00
2019-03-04T03:58:57.982Z,0.00
2019-03-04T03:59:57.972Z,0.00
2019-03-04T04:00:57.964Z,0.00
2019-03-04T04:01:57.952Z,0.00
2019-03-04T04:02:57.941Z,0.00
2019-03-04T04:03:57.936Z,0.00
2019-03-04T04:04:57.922Z,0.00
2019-03-04T04:05:57.916Z,0.00
2019-03-04T04:06:57.910Z,0.00
2019-03-04T04:07:57.892Z,0.00
2019-03-04T04:08:57.883Z,0.00
2019-03-04T04:09:57.872Z,0.00
2019-03-04T04:10:57.862Z,0.00
2019-03-04T04:11:57.853Z,0.00
2019-03-04T04:12:57.842Z,0.00
2019-03-04T04:13:57.833Z,0.00
2019-03-04T04:14:57.822Z,0.00
2019-03-04T04:15:57.814Z,0.00
2019-03-04T04:16:57.803Z,0.00
2019-03-04T04:17:57.793Z,0.00
2019-03-04T04:18:57.784Z,0.00
2019-03-04T04:19:57.775Z,0.00
2019-03-04T04:20:57.763Z,0.00
2019-03-04T04:21:57.754Z,0.00
2019-03-04T04:22:57.744Z,0.00
2019-03-04T04:23:57.741Z,0.00
2019-03-04T04:24:57.724Z,0.00
2019-03-04T04:25:57.719Z,0.00
2019-03-04T04:26:57.711Z,0.00
2019-03-04T04:27:57.693Z,0.00
2019-03-04T04:28:57.684Z,0.00
2019-03-04T04:29:57.674Z,0.00
2019-03-04T04:30:57.663Z,0.00
2019-03-04T04:31:57.659Z,0.00
2019-03-04T04:32:57.653Z,0.00
2019-03-04T04:33:57.636Z,0.00
2019-03-04T04:34:57.625Z,0.00
2019-03-04T04:35:57.616Z,0.00
2019-03-04T04:36:57.607Z,0.00
2019-03-04T04:37:57.594Z,0.00
2019-03-04T04:38:57.586Z,0.00
2019-03-04T04:39:57.575Z,0.00
2019-03-04T04:40:57.565Z,0.00
2019-03-04T04:41:57.554Z,0.00
2019-03-04T04:42:57.548Z,0.00
2019-03-04T04:43:57.534Z,0.00
2019-03-04T04:44:57.525Z,0.00
2019-03-04T04:45:57.521Z,0.00
2019-03-04T04:46:57.505Z,0.00
2019-03-04T04:47:57.495Z,0.00
2019-03-04T04:48:57.491Z,0.00
2019-03-04T04:49:57.474Z,0.00
2019-03-04T04:50:57.466Z,0.00
2019-03-04T04:51:57.457Z,0.00
2019-03-04T04:52:57.446Z,0.00
2019-03-04T04:53:57.435Z,0.00
2019-03-04T04:54:57.425Z,0.00
2019-03-04T04:55:57.416Z,0.00
2019-03-04T04:56:57.406Z,0.00
2019-03-04T04:57:57.398Z,0.00
2019-03-04T04:58:57.386Z,0.00
2019-03-04T04:59:57.377Z,0.00
2019-03-04T05:00:57.367Z,0.00
2019-03-04T05:01:57.357Z,0.00
2019-03-04T05:02:57.347Z,0.00
2019-03-04T05:03:57.337Z,0.00
2019-03-04T05:04:57.327Z,0.00
2019-03-04T05:05:57.316Z,0.00
2019-03-04T05:06:57.306Z,0.00
2019-03-04T05:07:57.297Z,0.00
2019-03-04T05:08:57.287Z,0.00
2019-03-04T05:09:57.277Z,0.00
2019-03-04T05:10:57.267Z,0.00
2019-03-04T05:11:57.258Z,0.00
2019-03-04T05:12:57.248Z,0.00
2019-03-04T05:13:57.237Z,0.00
2019-03-04T05:14:57.231Z,0.00
2019-03-04T05:15:57.217Z,0.00
2019-03-04T05:16:57.210Z,0.00
2019-03-04T05:17:57.197Z,0.00
2019-03-04T05:18:57.187Z,0.00
2019-03-04T05:19:57.177Z,0.00
2019-03-04T05:20:57.167Z,0.00
2019-03-04T05:21:57.157Z,0.00
2019-03-04T05:22:57.151Z,0.00
2019-03-04T05:23:57.137Z,0.00
2019-03-04T05:24:57.128Z,0.00
2019-03-04T05:25:57.117Z,0.00
2019-03-04T05:26:57.107Z,0.00
2019-03-04T05:27:57.097Z,0.00
2019-03-04T05:28:57.088Z,0.00
2019-03-04T05:29:57.077Z,0.00
2019-03-04T05:30:57.073Z,0.00
2019-03-04T05:31:57.063Z,0.00
2019-03-04T05:32:57.047Z,0.00
2019-03-04T05:33:57.044Z,0.00
2019-03-04T05:34:57.027Z,0.00
2019-03-04T05:35:57.019Z,0.00
2019-03-04T05:36:57.007Z,0.00
2019-03-04T05:37:56.996Z,0.00
2019-03-04T05:38:56.985Z,0.00
2019-03-04T05:39:56.976Z,0.00
2019-03-04T05:40:56.965Z,0.00
2019-03-04T05:41:56.952Z,0.00
2019-03-04T05:42:56.942Z,0.00
2019-03-04T05:43:56.929Z,0.00
2019-03-04T05:44:56.920Z,0.00
2019-03-04T05:45:56.905Z,0.00
2019-03-04T05:46:56.892Z,0.00
2019-03-04T05:47:56.881Z,0.00
2019-03-04T05:48:56.869Z,0.00
2019-03-04T05:49:56.855Z,0.00
2019-03-04T05:50:56.843Z,0.00
2019-03-04T05:51:56.831Z,0.00
2019-03-04T05:52:56.819Z,4.00
2019-03-04T05:53:56.805Z,0.00
2019-03-04T05:54:56.791Z,4.00
2019-03-04T05:55:56.782Z,4.00
2019-03-04T05:56:56.768Z,4.00
2019-03-04T05:57:56.752Z,4.00
2019-03-04T05:58:56.739Z,0.00
2019-03-04T05:59:56.726Z,0.00
2019-03-04T06:00:56.714Z,4.00
2019-03-04T06:01:56.701Z,4.00
2019-03-04T06:02:56.687Z,4.00
2019-03-04T06:03:56.673Z,8.00
2019-03-04T06:04:56.659Z,4.00
2019-03-04T06:05:56.647Z,8.00
2019-03-04T06:06:56.637Z,8.00
2019-03-04T06:07:56.630Z,12.00
2019-03-04T06:08:56.610Z,8.00
2019-03-04T06:09:56.591Z,12.00
2019-03-04T06:10:56.578Z,16.00
2019-03-04T06:11:56.565Z,16.00
2019-03-04T06:12:58.718Z,20.00
2019-03-04T06:13:56.536Z,20.00
2019-03-04T06:14:56.535Z,20.00
2019-03-04T06:15:56.511Z,32.00
2019-03-04T06:16:56.498Z,56.00
2019-03-04T06:17:56.484Z,80.00
2019-03-04T06:18:56.470Z,116.00
2019-03-04T06:19:56.457Z,156.00
2019-03-04T06:20:56.444Z,184.00
2019-03-04T06:21:56.430Z,196.00
2019-03-04T06:22:56.416Z,216.00
2019-03-04T06:23:56.404Z,232.00
2019-03-04T06:24:56.391Z,248.00
2019-03-04T06:25:56.380Z,256.00
2019-03-04T06:26:56.367Z,292.00
2019-03-04T06:27:56.352Z,332.00
2019-03-04T06:28:56.338Z,368.00
2019-03-04T06:29:56.325Z,412.00
2019-03-04T06:30:56.314Z,444.00
2019-03-04T06:31:56.300Z,484.00
2019-03-04T06:32:56.287Z,528.00
2019-03-04T06:33:56.274Z,560.00
2019-03-04T06:34:56.261Z,536.00
2019-03-04T06:35:56.248Z,504.00
2019-03-04T06:36:56.236Z,484.00
2019-03-04T06:37:56.228Z,472.00
2019-03-04T06:38:56.210Z,488.00
2019-03-04T06:39:56.197Z,504.00
2019-03-04T06:40:56.185Z,516.00
2019-03-04T06:41:56.173Z,540.00
2019-03-04T06:42:56.161Z,576.00
2019-03-04T06:43:56.146Z,588.00
2019-03-04T06:44:56.137Z,600.00
2019-03-04T06:45:56.122Z,608.00
2019-03-04T06:46:56.109Z,620.00
2019-03-04T06:47:56.097Z,632.00
2019-03-04T06:48:56.089Z,636.00
2019-03-04T06:49:56.071Z,636.00
2019-03-04T06:50:56.058Z,648.00
2019-03-04T06:51:56.048Z,600.00
2019-03-04T06:52:56.034Z,460.00
2019-03-04T06:53:56.022Z,380.00
2019-03-04T06:54:56.009Z,320.00
2019-03-04T06:55:55.997Z,380.00
2019-03-04T06:56:55.984Z,592.00
2019-03-04T06:57:55.972Z,932.00
2019-03-04T06:58:55.959Z,1244.00
2019-03-04T06:59:55.947Z,1448.00
2019-03-04T07:00:55.937Z,1592.00
2019-03-04T07:01:55.923Z,1752.00
2019-03-04T07:02:55.911Z,1908.00
2019-03-04T07:03:55.899Z,2052.00
2019-03-04T07:04:55.887Z,2012.00
2019-03-04T07:05:55.877Z,1916.00
2019-03-04T07:06:55.863Z,1896.00
2019-03-04T07:07:55.851Z,1932.00
2019-03-04T07:08:55.889Z,1844.00
2019-03-04T07:09:55.828Z,1680.00
2019-03-04T07:10:55.815Z,1408.00
2019-03-04T07:11:55.804Z,1268.00
2019-03-04T07:12:55.792Z,1316.00
2019-03-04T07:13:55.779Z,1592.00
2019-03-04T07:14:55.767Z,2048.00
2019-03-04T07:15:55.756Z,2324.00
2019-03-04T07:16:55.745Z,2456.00
2019-03-04T07:17:55.731Z,2704.00
2019-03-04T07:18:55.720Z,3164.00
2019-03-04T07:19:55.708Z,3788.00
2019-03-04T07:20:55.696Z,4868.00
2019-03-04T07:21:55.685Z,5916.00
2019-03-04T07:22:55.678Z,6152.00
2019-03-04T07:23:55.661Z,5896.00
2019-03-04T07:24:55.649Z,5620.00
2019-03-04T07:25:55.637Z,5412.00
2019-03-04T07:26:55.626Z,5828.00
2019-03-04T07:27:55.614Z,5808.00
2019-03-04T07:28:55.604Z,5656.00
2019-03-04T07:29:55.602Z,5272.00
2019-03-04T07:30:55.581Z,4992.00
2019-03-04T07:31:55.572Z,4716.00
2019-03-04T07:32:55.559Z,4516.00
2019-03-04T07:33:55.547Z,4416.00
2019-03-04T07:34:55.539Z,4368.00
2019-03-04T07:35:55.530Z,4436.00
2019-03-04T07:36:55.515Z,4776.00
2019-03-04T07:37:55.503Z,4568.00
2019-03-04T07:38:55.492Z,3872.00
2019-03-04T07:39:55.482Z,2520.00
2019-03-04T07:40:55.481Z,2180.00
2019-03-04T07:41:55.460Z,1788.00
2019-03-04T07:42:55.449Z,1704.00
2019-03-04T07:43:55.438Z,1656.00
2019-03-04T07:44:55.427Z,1592.00
2019-03-04T07:45:55.415Z,1496.00
2019-03-04T07:46:55.405Z,1476.00
2019-03-04T07:47:55.394Z,1724.00
2019-03-04T07:48:55.434Z,1716.00
2019-03-04T07:49:55.371Z,3012.00
2019-03-04T07:50:55.363Z,2376.00
2019-03-04T07:51:55.348Z,2504.00
2019-03-04T07:52:55.338Z,3044.00
2019-03-04T07:53:55.330Z,2476.00
2019-03-04T07:54:55.314Z,3172.00
2019-03-04T07:55:55.310Z,7084.00
2019-03-04T07:56:55.293Z,5584.00
2019-03-04T07:57:55.281Z,6020.00
2019-03-04T07:58:55.271Z,3248.00
2019-03-04T07:59:55.262Z,3396.00
2019-03-04T08:00:55.252Z,4444.00
2019-03-04T08:01:55.240Z,8824.00
2019-03-04T08:02:55.230Z,7996.00
2019-03-04T08:03:55.221Z,4688.00
2019-03-04T08:04:55.212Z,7236.00
2019-03-04T08:05:55.201Z,9332.00
2019-03-04T08:06:55.192Z,8964.00
2019-03-04T08:07:55.183Z,10624.00
2019-03-04T08:08:55.175Z,9668.00
2019-03-04T08:09:55.165Z,9156.00
2019-03-04T08:10:55.156Z,7848.00
2019-03-04T08:11:55.152Z,7756.00
2019-03-04T08:12:55.141Z,7904.00
2019-03-04T08:13:55.133Z,8048.00
2019-03-04T08:14:55.124Z,8140.00
2019-03-04T08:15:55.124Z,7892.00
2019-03-04T08:16:55.110Z,8264.00
2019-03-04T08:17:55.102Z,8508.00
2019-03-04T08:18:55.094Z,9908.00
2019-03-04T08:19:55.087Z,8892.00
2019-03-04T08:20:55.082Z,8240.00
2019-03-04T08:21:55.077Z,8280.00
2019-03-04T08:22:55.067Z,8596.00
2019-03-04T08:23:55.061Z,5176.00
2019-03-04T08:24:55.054Z,8188.00
2019-03-04T08:25:55.047Z,8576.00
2019-03-04T08:26:55.041Z,4940.00
2019-03-04T08:27:55.035Z,8408.00
2019-03-04T08:28:55.028Z,8692.00
2019-03-04T08:29:55.021Z,11844.00
2019-03-04T08:30:55.016Z,12028.00
2019-03-04T08:31:55.012Z,10672.00
2019-03-04T08:32:55.002Z,13288.00
2019-03-04T08:33:54.996Z,9216.00
2019-03-04T08:34:54.987Z,9308.00
2019-03-04T08:35:54.981Z,14436.00
2019-03-04T08:36:54.992Z,10956.00
2019-03-04T08:37:54.967Z,4760.00
2019-03-04T08:38:54.962Z,6896.00
2019-03-04T08:39:54.954Z,11148.00
2019-03-04T08:40:54.946Z,7540.00
2019-03-04T08:41:54.939Z,9392.00
2019-03-04T08:42:54.931Z,9280.00
2019-03-04T08:43:54.924Z,10084.00
2019-03-04T08:44:54.918Z,12172.00
2019-03-04T08:45:54.909Z,12360.00
2019-03-04T08:46:54.901Z,9008.00
2019-03-04T08:47:54.895Z,7684.00
2019-03-04T08:48:54.885Z,8108.00
2019-03-04T08:49:54.876Z,11040.00
2019-03-04T08:50:54.890Z,10260.00
2019-03-04T08:51:54.859Z,7728.00
2019-03-04T08:52:54.850Z,7960.00
2019-03-04T08:53:54.841Z,9524.00
2019-03-04T08:54:54.832Z,11308.00
2019-03-04T08:55:54.825Z,12844.00
2019-03-04T08:57:03.608Z,12904.00
2019-03-04T08:57:54.814Z,11284.00
2019-03-04T08:58:54.798Z,13180.00
2019-03-04T08:59:54.787Z,15524.00
2019-03-04T09:00:54.777Z,10572.00
2019-03-04T09:01:54.768Z,10496.00
2019-03-04T09:02:54.758Z,14016.00
2019-03-04T09:03:54.750Z,19808.00
2019-03-04T09:04:54.741Z,9024.00
2019-03-04T09:05:54.731Z,7668.00
2019-03-04T09:06:54.723Z,7416.00
2019-03-04T09:07:54.714Z,7892.00
2019-03-04T09:08:54.707Z,8164.00
2019-03-04T09:09:54.695Z,8596.00
2019-03-04T09:10:54.686Z,8140.00
2019-03-04T09:11:54.676Z,6972.00
2019-03-04T09:12:54.685Z,6604.00
2019-03-04T09:13:54.657Z,6768.00
2019-03-04T09:14:54.647Z,6676.00
2019-03-04T09:15:54.641Z,6500.00
2019-03-04T09:16:54.629Z,5764.00
2019-03-04T09:17:54.620Z,4824.00
2019-03-04T09:18:54.609Z,4760.00
2019-03-04T09:19:54.598Z,4680.00
2019-03-04T09:20:54.592Z,4420.00
2019-03-04T09:21:54.580Z,4632.00
2019-03-04T09:22:54.570Z,5084.00
2019-03-04T09:23:54.558Z,5388.00
2019-03-04T09:24:54.548Z,5864.00
2019-03-04T09:25:54.537Z,6448.00
2019-03-04T09:26:54.527Z,6684.00
2019-03-04T09:27:54.516Z,7836.00
2019-03-04T09:28:54.558Z,8392.00
2019-03-04T09:29:54.501Z,9860.00
2019-03-04T09:30:54.487Z,10396.00
2019-03-04T09:31:54.476Z,14536.00
2019-03-04T09:32:54.466Z,13156.00
2019-03-04T09:33:54.455Z,14700.00
2019-03-04T09:34:54.446Z,16608.00
2019-03-04T09:35:54.437Z,16736.00
2019-03-04T09:36:54.434Z,14668.00
2019-03-04T09:37:54.418Z,14800.00
2019-03-04T09:38:54.415Z,17984.00
2019-03-04T09:39:54.400Z,18304.00
2019-03-04T09:40:54.391Z,13592.00
2019-03-04T09:41:54.382Z,10276.00
2019-03-04T09:42:54.373Z,10140.00
2019-03-04T09:43:54.364Z,8916.00
2019-03-04T09:44:54.355Z,6464.00
2019-03-04T09:45:54.345Z,5588.00
2019-03-04T09:46:54.337Z,5428.00
2019-03-04T09:47:54.327Z,5056.00
2019-03-04T09:48:54.368Z,5256.00
2019-03-04T09:49:54.307Z,4484.00
2019-03-04T09:50:54.299Z,5032.00
2019-03-04T09:51:54.290Z,4864.00
2019-03-04T09:52:54.280Z,5056.00
2019-03-04T09:53:54.273Z,4488.00
2019-03-04T09:54:54.262Z,4304.00
2019-03-04T09:55:54.251Z,5140.00
2019-03-04T09:56:54.241Z,4216.00
2019-03-04T09:57:54.231Z,4904.00
2019-03-04T09:58:54.221Z,5736.00
2019-03-04T09:59:54.213Z,4856.00
2019-03-04T10:00:54.200Z,4200.00
2019-03-04T10:01:54.196Z,3968.00
2019-03-04T10:02:54.181Z,3096.00
2019-03-04T10:03:54.172Z,4008.00
2019-03-04T10:04:54.161Z,5100.00
2019-03-04T10:05:54.150Z,4704.00
2019-03-04T10:06:54.140Z,5008.00
2019-03-04T10:07:54.132Z,5064.00
2019-03-04T10:08:54.120Z,4328.00
2019-03-04T10:09:54.109Z,3240.00
2019-03-04T10:10:54.099Z,2984.00
2019-03-04T10:11:54.088Z,3696.00
2019-03-04T10:12:54.082Z,4196.00
2019-03-04T10:13:54.068Z,4908.00
2019-03-04T10:14:54.056Z,5812.00
2019-03-04T10:15:54.050Z,5048.00
2019-03-04T10:16:54.036Z,4776.00
2019-03-04T10:17:54.026Z,4720.00
2019-03-04T10:18:54.015Z,5044.00
2019-03-04T10:19:54.005Z,5552.00
2019-03-04T10:20:53.995Z,4856.00
2019-03-04T10:21:53.983Z,4540.00
2019-03-04T10:22:53.973Z,5556.00
2019-03-04T10:23:53.964Z,5496.00
2019-03-04T10:24:53.953Z,5892.00
2019-03-04T10:25:53.942Z,7064.00
2019-03-04T10:26:53.932Z,7348.00
2019-03-04T10:27:53.925Z,5380.00
2019-03-04T10:28:53.963Z,5372.00
2019-03-04T10:29:53.899Z,4556.00
2019-03-04T10:30:53.891Z,4536.00
2019-03-04T10:31:53.885Z,3944.00
2019-03-04T10:32:53.869Z,3928.00
2019-03-04T10:33:53.857Z,4744.00
2019-03-04T10:34:53.847Z,5516.00
2019-03-04T10:35:53.839Z,6776.00
2019-03-04T10:36:53.827Z,6328.00
2019-03-04T10:37:53.815Z,5312.00
2019-03-04T10:38:53.806Z,8296.00
2019-03-04T10:39:53.794Z,7940.00
2019-03-04T10:40:53.783Z,6480.00
2019-03-04T10:41:53.773Z,8216.00
2019-03-04T10:42:53.761Z,8080.00
2019-03-04T10:43:53.752Z,9744.00
2019-03-04T10:44:53.741Z,9204.00
2019-03-04T10:45:53.729Z,7828.00
2019-03-04T10:46:53.720Z,7788.00
2019-03-04T10:47:53.710Z,8516.00
2019-03-04T10:48:53.699Z,7420.00
2019-03-04T10:49:53.687Z,8956.00
2019-03-04T10:50:53.677Z,7604.00
2019-03-04T10:51:53.667Z,7496.00
2019-03-04T10:52:53.657Z,6432.00
2019-03-04T10:53:53.650Z,7252.00
2019-03-04T10:54:53.640Z,6300.00
2019-03-04T10:55:53.630Z,4512.00
2019-03-04T10:56:53.618Z,2184.00
2019-03-04T10:57:53.604Z,1572.00
2019-03-04T10:58:53.595Z,1636.00
2019-03-04T10:59:53.585Z,2024.00
2019-03-04T11:00:53.573Z,2512.00
2019-03-04T11:01:53.561Z,3000.00
2019-03-04T11:02:53.550Z,4336.00
2019-03-04T11:03:53.540Z,7348.00
2019-03-04T11:04:53.528Z,7932.00
2019-03-04T11:05:53.544Z,7888.00
2019-03-04T11:06:54.866Z,6376.00
2019-03-04T11:07:53.490Z,4552.00
2019-03-04T11:08:53.479Z,3760.00
2019-03-04T11:09:53.466Z,3456.00
2019-03-04T11:10:53.454Z,3564.00
2019-03-04T11:11:53.441Z,3596.00
2019-03-04T11:12:53.431Z,3404.00
2019-03-04T11:13:53.420Z,2844.00
2019-03-04T11:14:53.403Z,2444.00
2019-03-04T11:15:53.391Z,2140.00
2019-03-04T11:16:53.377Z,1736.00
2019-03-04T11:17:54.404Z,1288.00
2019-03-04T11:18:53.350Z,1184.00
2019-03-04T11:19:53.337Z,1168.00
2019-03-04T11:20:53.326Z,1240.00
2019-03-04T11:21:53.311Z,1384.00
2019-03-04T11:22:53.298Z,2048.00
2019-03-04T11:23:53.284Z,2812.00
2019-03-04T11:24:53.271Z,3312.00
2019-03-04T11:25:53.257Z,4080.00
2019-03-04T11:26:53.244Z,5024.00
2019-03-04T11:27:53.231Z,4052.00
2019-03-04T11:28:53.218Z,4436.00
2019-03-04T11:29:53.206Z,4484.00
2019-03-04T11:30:53.194Z,4640.00
2019-03-04T11:31:53.181Z,4684.00
2019-03-04T11:32:53.167Z,5036.00
2019-03-04T11:33:53.153Z,3776.00
2019-03-04T11:34:53.140Z,3344.00
2019-03-04T11:35:53.127Z,3320.00
2019-03-04T11:36:53.116Z,3032.00
2019-03-04T11:37:53.108Z,2200.00
2019-03-04T11:38:53.088Z,2052.00
2019-03-04T11:39:53.077Z,1892.00
2019-03-04T11:40:53.064Z,2144.00
2019-03-04T11:41:53.049Z,3784.00
2019-03-04T11:42:53.036Z,5208.00
2019-03-04T11:43:53.023Z,3784.00
2019-03-04T11:44:53.011Z,3732.00
2019-03-04T11:45:52.997Z,2232.00
2019-03-04T11:46:52.985Z,2668.00
2019-03-04T11:47:52.972Z,3824.00
2019-03-04T11:48:52.959Z,5372.00
2019-03-04T11:49:53.514Z,4696.00
2019-03-04T11:50:52.934Z,5788.00
2019-03-04T11:51:52.921Z,6060.00
2019-03-04T11:52:52.908Z,6180.00
2019-03-04T11:53:52.903Z,6212.00
2019-03-04T11:54:52.885Z,5880.00
2019-03-04T11:55:53.597Z,5232.00
2019-03-04T11:56:52.858Z,4428.00
2019-03-04T11:57:52.844Z,3936.00
2019-03-04T11:58:52.833Z,3440.00
2019-03-04T11:59:52.820Z,3520.00
2019-03-04T12:00:52.807Z,4216.00
2019-03-04T12:01:52.795Z,5076.00
2019-03-04T12:02:52.782Z,6120.00
2019-03-04T12:03:52.770Z,6884.00
2019-03-04T12:04:52.759Z,7388.00
2019-03-04T12:05:52.746Z,7948.00
2019-03-04T12:06:52.738Z,8136.00
2019-03-04T12:07:52.721Z,8432.00
2019-03-04T12:08:52.710Z,9172.00
2019-03-04T12:09:52.701Z,9444.00
2019-03-04T12:10:52.685Z,8144.00
2019-03-04T12:11:52.673Z,8336.00
2019-03-04T12:12:52.661Z,10088.00
2019-03-04T12:13:52.649Z,9048.00
2019-03-04T12:14:52.638Z,9520.00
2019-03-04T12:15:52.626Z,9404.00
2019-03-04T12:16:52.615Z,10120.00
2019-03-04T12:17:52.603Z,11652.00
2019-03-04T12:18:52.590Z,12720.00
2019-03-04T12:19:52.580Z,18464.00
2019-03-04T12:20:52.571Z,15492.00
2019-03-04T12:21:52.559Z,12392.00
2019-03-04T12:22:52.548Z,13004.00
2019-03-04T12:23:52.536Z,15844.00
2019-03-04T12:24:52.524Z,15660.00
2019-03-04T12:25:52.513Z,13276.00
2019-03-04T12:26:52.503Z,12716.00
2019-03-04T12:27:52.492Z,12928.00
2019-03-04T12:28:52.486Z,12176.00
2019-03-04T12:29:52.471Z,7988.00
2019-03-04T12:30:52.460Z,7908.00
2019-03-04T12:31:52.451Z,8856.00
2019-03-04T12:32:52.440Z,10124.00
2019-03-04T12:33:52.428Z,9268.00
2019-03-04T12:34:52.417Z,11800.00
2019-03-04T12:35:52.407Z,13244.00
2019-03-04T12:36:52.397Z,9764.00
2019-03-04T12:37:52.387Z,7304.00
2019-03-04T12:38:52.375Z,8940.00